Time;durP1;ratioP1;P1;durP2;ratioP2;P2;SDS_P1;SDS_P2;PMS_P1;PMS_P2;Temp;Humidity;BMP_temperature;BMP_pressure;BME280_temperature;BME280_humidity;BME280_pressure;Samples;Min_cycle;Max_cycle;Signal;HPM_P1;HPM_P2
2024/02/07 00:00:37;;;;;;;9.9;6.1;;;;;;;2.93;79.1123;936.7231;;;;
2024/02/07 00:03:02;;;;;;;10.3;5.4;;;;;;;3.04;78.34863;936.6918;;;;
2024/02/07 00:05:27;;;;;;;9.2;5;;;;;;;3.06;78.02441;936.6389;;;;
2024/02/07 00:07:52;;;;;;;7.2;4.5;;;;;;;2.99;78.31641;936.7369;;;;
2024/02/07 00:10:17;;;;;;;9.6;4.9;;;;;;;2.72;79.21777;936.7081;;;;
2024/02/07 00:12:43;;;;;;;8;4.9;;;;;;;2.63;79.62793;936.598;;;;
2024/02/07 00:15:08;;;;;;;7.8;4.6;;;;;;;2.58;80.14648;936.6408;;;;
2024/02/07 00:17:33;;;;;;;8.6;4.8;;;;;;;2.63;79.875;936.6813;;;;
2024/02/07 00:19:58;;;;;;;7.7;4.8;;;;;;;2.6;80.15039;936.5884;;;;
2024/02/07 00:22:23;;;;;;;9.9;4.7;;;;;;;2.54;80.66309;936.6573;;;;
2024/02/07 00:24:48;;;;;;;9.9;5;;;;;;;2.53;81.14355;936.5759;;;;
2024/02/07 00:27:13;;;;;;;8.8;4.8;;;;;;;2.5;81.27441;936.5184;;;;
2024/02/07 00:29:39;;;;;;;8.1;4.9;;;;;;;2.62;81.41797;936.46;;;;
2024/02/07 00:32:04;;;;;;;8.9;5.1;;;;;;;2.78;80.66602;936.5036;;;;
2024/02/07 00:34:29;;;;;;;8.5;4.9;;;;;;;2.87;80.12109;936.3386;;;;
2024/02/07 00:36:54;;;;;;;8.4;5.2;;;;;;;2.9;79.63281;936.4356;;;;
2024/02/07 00:39:19;;;;;;;10.2;4.9;;;;;;;2.68;79.87402;936.3405;;;;
2024/02/07 00:41:44;;;;;;;11.1;5.1;;;;;;;2.59;80.33691;936.307;;;;
2024/02/07 00:44:09;;;;;;;9.1;5.1;;;;;;;2.52;80.82813;936.2416;;;;
2024/02/07 00:46:34;;;;;;;9.3;5.1;;;;;;;2.45;81.0957;936.1573;;;;
2024/02/07 00:49:02;;;;;;;7.5;4.7;;;;;;;2.53;81.05566;936.1995;;;;
2024/02/07 00:51:24;;;;;;;8.4;4.6;;;;;;;2.44;81.5332;936.0602;;;;
2024/02/07 00:53:49;;;;;;;8.6;5.3;;;;;;;2.42;81.69434;936.1194;;;;
2024/02/07 00:56:14;;;;;;;7.4;4.5;;;;;;;2.62;80.93652;936.0623;;;;
2024/02/07 00:58:40;;;;;;;7.6;4.3;;;;;;;2.61;80.83594;936.1635;;;;
2024/02/07 01:01:05;;;;;;;6.4;4.2;;;;;;;2.85;79.94922;936.0291;;;;
2024/02/07 01:03:31;;;;;;;9.5;5.1;;;;;;;2.83;79.52148;936.0709;;;;
2024/02/07 01:05:55;;;;;;;8.7;5;;;;;;;2.56;80.27637;936.1331;;;;
2024/02/07 01:08:20;;;;;;;8.3;4.5;;;;;;;2.38;80.95898;936.0014;;;;
2024/02/07 01:10:46;;;;;;;7.4;4.8;;;;;;;2.52;80.62793;936.0279;;;;
2024/02/07 01:13:11;;;;;;;12.9;11.6;;;;;;;2.62;80.30859;936.0253;;;;
2024/02/07 01:15:36;;;;;;;11.5;7.4;;;;;;;2.43;80.11719;935.9775;;;;
2024/02/07 01:18:01;;;;;;;10;6.2;;;;;;;2.49;80.49805;935.994;;;;
2024/02/07 01:20:26;;;;;;;9.1;5.6;;;;;;;2.34;80.8291;935.9483;;;;
2024/02/07 01:22:51;;;;;;;11.6;5.4;;;;;;;2.43;80.4541;935.9;;;;
2024/02/07 01:25:16;;;;;;;9.3;4.9;;;;;;;2.38;80.52148;935.8452;;;;
2024/02/07 01:27:41;;;;;;;9.7;4.7;;;;;;;2.35;80.49414;935.8251;;;;
2024/02/07 01:30:07;;;;;;;8.7;4.7;;;;;;;2.32;80.81445;935.7573;;;;
2024/02/07 01:32:32;;;;;;;9.6;4.4;;;;;;;2.44;80.55664;935.7062;;;;
2024/02/07 01:34:57;;;;;;;6.4;4.4;;;;;;;2.34;80.67188;935.6944;;;;
2024/02/07 01:37:22;;;;;;;7.7;4.1;;;;;;;2.25;81.2373;935.6802;;;;
2024/02/07 01:39:47;;;;;;;6.2;4;;;;;;;2.33;80.93945;935.5991;;;;
2024/02/07 01:42:12;;;;;;;6.8;4;;;;;;;2.47;80.46973;935.6512;;;;
2024/02/07 01:44:38;;;;;;;6.8;3.8;;;;;;;2.42;80.39648;935.6725;;;;
2024/02/07 01:47:15;;;;;;;7.8;3.8;;;;;;;2.35;80.60645;935.6719;;;;
2024/02/07 01:49:28;;;;;;;8.8;4;;;;;;;2.17;81.42285;935.6903;;;;
2024/02/07 01:51:54;;;;;;;7.4;4;;;;;;;2.15;82.00195;935.7493;;;;
2024/02/07 01:54:18;;;;;;;7.3;4;;;;;;;2.23;81.83789;935.6309;;;;
2024/02/07 01:56:44;;;;;;;8.5;3.6;;;;;;;2.38;81.37305;935.6205;;;;
2024/02/07 01:59:08;;;;;;;6.2;5.1;;;;;;;2.41;81.01074;935.4341;;;;
2024/02/07 02:01:34;;;;;;;6.7;4.2;;;;;;;2.51;80.13086;935.468;;;;
2024/02/07 02:03:59;;;;;;;6.2;4;;;;;;;2.34;80.50195;935.5569;;;;
2024/02/07 02:06:24;;;;;;;7.4;4.1;;;;;;;2.28;80.90625;935.5291;;;;
2024/02/07 02:08:49;;;;;;;6.2;3.5;;;;;;;2.2;80.89258;935.4621;;;;
2024/02/07 02:11:14;;;;;;;6.3;4.1;;;;;;;2.24;81.54688;935.5313;;;;
2024/02/07 02:13:39;;;;;;;6.1;3.7;;;;;;;2.13;81.54883;935.4257;;;;
2024/02/07 02:16:04;;;;;;;8.9;4.6;;;;;;;2.07;81.90723;935.401;;;;
2024/02/07 02:18:30;;;;;;;7.8;4;;;;;;;2.16;81.4082;935.3702;;;;
2024/02/07 02:20:54;;;;;;;6.5;3.9;;;;;;;2.32;80.8457;935.2756;;;;
2024/02/07 02:23:20;;;;;;;9.3;4.2;;;;;;;2.33;80.84766;935.1376;;;;
2024/02/07 02:25:45;;;;;;;5.4;3.8;;;;;;;2.07;81.61523;935.2162;;;;
2024/02/07 02:28:17;;;;;;;7.6;5.7;;;;;;;2.03;82.17871;935.1896;;;;
2024/02/07 02:30:40;;;;;;;8.4;4.4;;;;;;;1.89;82.90234;935.135;;;;
2024/02/07 02:33:00;;;;;;;6.7;4.2;;;;;;;1.92;83.06445;935.0897;;;;
2024/02/07 02:35:25;;;;;;;10;4.4;;;;;;;1.93;83.24512;935.0994;;;;
2024/02/07 02:37:51;;;;;;;5.9;4.4;;;;;;;2.02;82.70508;935.0678;;;;
2024/02/07 02:40:17;;;;;;;7.2;4.8;;;;;;;2.26;81.85449;935.0114;;;;
2024/02/07 02:42:40;;;;;;;8.7;4.9;;;;;;;2.41;81.05566;934.991;;;;
2024/02/07 02:45:06;;;;;;;6.7;4.6;;;;;;;2.25;81.08008;935.0022;;;;
2024/02/07 02:47:31;;;;;;;7.8;4.1;;;;;;;2.02;81.80762;935.0181;;;;
2024/02/07 02:49:56;;;;;;;6.1;4.1;;;;;;;1.96;82.3457;935.0207;;;;
2024/02/07 02:52:22;;;;;;;6.2;4.1;;;;;;;2.1;81.98047;934.9103;;;;
2024/02/07 02:54:47;;;;;;;6.6;4.1;;;;;;;2.16;82.0127;934.9295;;;;
2024/02/07 02:57:12;;;;;;;7.4;4.3;;;;;;;2.13;82.27637;934.9623;;;;
2024/02/07 02:59:36;;;;;;;7.1;4.5;;;;;;;2.15;82.1582;934.9381;;;;
2024/02/07 03:02:08;;;;;;;7.5;4.1;;;;;;;1.98;82.37109;934.92;;;;
2024/02/07 03:04:27;;;;;;;7.7;4;;;;;;;1.9;82.73633;934.9485;;;;
2024/02/07 03:07:13;;;;;;;6.4;3.7;;;;;;;1.73;83.13867;934.9067;;;;
2024/02/07 03:09:21;;;;;;;7.6;4;;;;;;;1.82;82.97754;934.8312;;;;
2024/02/07 03:11:42;;;;;;;7.9;4;;;;;;;1.88;83.43555;934.8447;;;;
2024/02/07 03:14:07;;;;;;;8.2;4.5;;;;;;;2.08;82.57031;934.9302;;;;
2024/02/07 03:16:33;;;;;;;7.5;5.8;;;;;;;2.06;82.51953;934.8909;;;;
2024/02/07 03:18:58;;;;;;;8.8;5.4;;;;;;;2.2;81.84277;934.8666;;;;
2024/02/07 03:21:22;;;;;;;6.3;4.4;;;;;;;2;81.92773;934.8578;;;;
2024/02/07 03:23:48;;;;;;;6.5;4.1;;;;;;;1.98;82.0918;934.8416;;;;
2024/02/07 03:26:13;;;;;;;7;4.1;;;;;;;1.96;82.1084;934.8705;;;;
2024/02/07 03:28:38;;;;;;;6.8;4;;;;;;;1.95;81.96191;934.8514;;;;
2024/02/07 03:31:05;;;;;;;9.2;3.8;;;;;;;2.04;81.6543;934.7283;;;;
2024/02/07 03:33:28;;;;;;;5.9;4.1;;;;;;;2.1;81.27441;934.6842;;;;
2024/02/07 03:35:54;;;;;;;6.2;4.7;;;;;;;1.91;81.46094;934.6206;;;;
2024/02/07 03:38:19;;;;;;;9.9;5.3;;;;;;;1.74;82.50488;934.6027;;;;
2024/02/07 03:40:45;;;;;;;10.2;5.6;;;;;;;1.71;82.7998;934.6933;;;;
2024/02/07 03:43:09;;;;;;;8.3;5.2;;;;;;;1.73;82.80371;934.6509;;;;
2024/02/07 03:45:34;;;;;;;7.2;4.5;;;;;;;1.68;83.08496;934.595;;;;
2024/02/07 03:47:59;;;;;;;6.2;4.3;;;;;;;1.64;83.31152;934.5464;;;;
2024/02/07 03:50:25;;;;;;;10;4.6;;;;;;;1.59;83.81641;934.5625;;;;
2024/02/07 03:52:50;;;;;;;6.9;4.3;;;;;;;1.53;84.24023;934.543;;;;
2024/02/07 03:55:15;;;;;;;7.6;4.4;;;;;;;1.71;83.95215;934.6116;;;;
2024/02/07 03:57:42;;;;;;;6.6;4.1;;;;;;;1.72;83.52832;934.5201;;;;
2024/02/07 04:02:32;;;;;;;7.5;4.1;;;;;;;1.86;82.83008;934.4817;;;;
2024/02/07 04:04:55;;;;;;;5.7;3.9;;;;;;;1.8;82.66113;934.4773;;;;
2024/02/07 04:07:20;;;;;;;7.1;4.9;;;;;;;1.88;82.09473;934.3834;;;;
2024/02/07 04:09:45;;;;;;;6;4;;;;;;;1.83;82.01758;934.2498;;;;
2024/02/07 05:17:28;;;;;;;5;3.7;;;;;;;1.54;83.0127;934.2592;;;;
2024/02/07 05:19:53;;;;;;;6.2;3.9;;;;;;;1.48;83.52734;934.2901;;;;
2024/02/07 05:22:19;;;;;;;5.7;3.4;;;;;;;1.6;83.13672;934.2556;;;;
2024/02/07 05:24:44;;;;;;;6.9;3.4;;;;;;;;;;;;;
2024/02/07 05:27:12;;;;;;;6.4;3.8;;;;;;;;;;;;;
2024/02/07 05:29:34;;;;;;;7;4.1;;;;;;;;;;;;;
2024/02/07 05:31:59;;;;;;;7.2;4.8;;;;;;;;;;;;;
2024/02/07 05:34:24;;;;;;;7.4;4.7;;;;;;;;;;;;;
2024/02/07 05:36:49;;;;;;;8.9;4.3;;;;;;;;;;;;;
2024/02/07 05:39:15;;;;;;;6.1;4.1;;;;;;;;;;;;;
2024/02/07 05:41:42;;;;;;;8.1;3.5;;;;;;;;;;;;;
2024/02/07 05:44:05;;;;;;;6.7;3.9;;;;;;;;;;;;;
2024/02/07 05:46:30;;;;;;;6.9;4.1;;;;;;;;;;;;;
2024/02/07 05:48:56;;;;;;;6.6;4.1;;;;;;;;;;;;;
2024/02/07 05:51:20;;;;;;;5.9;4.4;;;;;;;;;;;;;
2024/02/07 05:53:45;;;;;;;8.7;4.9;;;;;;;;;;;;;
2024/02/07 05:56:10;;;;;;;10.1;5.3;;;;;;;;;;;;;
2024/02/07 05:58:39;;;;;;;9.8;5.1;;;;;;;;;;;;;
2024/02/07 06:01:01;;;;;;;10.5;6.1;;;;;;;;;;;;;
2024/02/07 06:03:26;;;;;;;14;6.6;;;;;;;;;;;;;
2024/02/07 06:05:53;;;;;;;12.5;6.9;;;;;;;;;;;;;
2024/02/07 06:08:16;;;;;;;11.5;6.2;;;;;;;;;;;;;
2024/02/07 06:10:42;;;;;;;12.1;7;;;;;;;;;;;;;
2024/02/07 06:13:06;;;;;;;12.3;6.7;;;;;;;;;;;;;
2024/02/07 06:15:31;;;;;;;11;7.3;;;;;;;;;;;;;
2024/02/07 06:17:59;;;;;;;11.5;7.2;;;;;;;;;;;;;
2024/02/07 06:20:22;;;;;;;8.9;5.9;;;;;;;;;;;;;
2024/02/07 06:22:47;;;;;;;10.2;5.9;;;;;;;;;;;;;
2024/02/07 06:25:13;;;;;;;8.8;6;;;;;;;;;;;;;
2024/02/07 06:27:37;;;;;;;9.3;5.4;;;;;;;;;;;;;
2024/02/07 06:30:02;;;;;;;9.4;5.8;;;;;;;;;;;;;
2024/02/07 06:32:27;;;;;;;9.6;5.2;;;;;;;;;;;;;
2024/02/07 06:34:53;;;;;;;16.6;8.9;;;;;;;;;;;;;
2024/02/07 06:37:17;;;;;;;15.9;10;;;;;;;;;;;;;
2024/02/07 06:39:43;;;;;;;9.5;5.8;;;;;;;;;;;;;
2024/02/07 06:42:08;;;;;;;8.2;5.2;;;;;;;;;;;;;
2024/02/07 06:44:33;;;;;;;8.5;5;;;;;;;;;;;;;
2024/02/07 06:46:58;;;;;;;6.9;4.7;;;;;;;;;;;;;
2024/02/07 06:49:23;;;;;;;7;4.3;;;;;;;;;;;;;
2024/02/07 06:51:48;;;;;;;9.2;5;;;;;;;;;;;;;
2024/02/07 06:54:13;;;;;;;10.4;5.4;;;;;;;;;;;;;
2024/02/07 06:56:39;;;;;;;8.7;5.6;;;;;;;;;;;;;
2024/02/07 06:59:04;;;;;;;8.6;4.9;;;;;;;;;;;;;
2024/02/07 07:01:29;;;;;;;8.3;5.1;;;;;;;;;;;;;
2024/02/07 07:03:55;;;;;;;9.8;5.5;;;;;;;;;;;;;
2024/02/07 07:06:19;;;;;;;10;5.3;;;;;;;;;;;;;
2024/02/07 07:08:45;;;;;;;8.3;4.8;;;;;;;;;;;;;
2024/02/07 07:11:09;;;;;;;7.2;4.4;;;;;;;;;;;;;
2024/02/07 07:13:34;;;;;;;7.3;4.3;;;;;;;;;;;;;
2024/02/07 07:15:59;;;;;;;7.7;4.1;;;;;;;;;;;;;
2024/02/07 07:18:25;;;;;;;12.8;6.8;;;;;;;;;;;;;
2024/02/07 07:20:50;;;;;;;11.9;6;;;;;;;;;;;;;
2024/02/07 07:23:15;;;;;;;12.3;5.2;;;;;;;;;;;;;
2024/02/07 07:25:40;;;;;;;10.3;6;;;;;;;;;;;;;
2024/02/07 07:28:05;;;;;;;16.7;8.3;;;;;;;;;;;;;
2024/02/07 07:30:30;;;;;;;12.5;7.1;;;;;;;;;;;;;
2024/02/07 07:32:56;;;;;;;9.3;5.5;;;;;;;;;;;;;
2024/02/07 07:35:21;;;;;;;8.5;4.5;;;;;;;;;;;;;
2024/02/07 07:37:46;;;;;;;10.3;4.6;;;;;;;;;;;;;
2024/02/07 07:40:11;;;;;;;8.5;4.6;;;;;;;;;;;;;
2024/02/07 07:42:36;;;;;;;9.4;4.4;;;;;;;;;;;;;
2024/02/07 07:45:01;;;;;;;7.4;4.5;;;;;;;;;;;;;
2024/02/07 07:47:26;;;;;;;11.4;5.9;;;;;;;;;;;;;
2024/02/07 07:49:51;;;;;;;7.9;7;;;;;;;;;;;;;
2024/02/07 07:52:17;;;;;;;6.1;4;;;;;;;;;;;;;
2024/02/07 07:54:42;;;;;;;7.4;4.4;;;;;;;;;;;;;
2024/02/07 07:57:07;;;;;;;7.4;4.1;;;;;;;;;;;;;
2024/02/07 07:59:32;;;;;;;6.8;4.4;;;;;;;;;;;;;
2024/02/07 08:01:57;;;;;;;6.3;4;;;;;;;;;;;;;
2024/02/07 08:04:22;;;;;;;8.6;4.1;;;;;;;;;;;;;
2024/02/07 08:06:47;;;;;;;6.4;3.9;;;;;;;;;;;;;
2024/02/07 08:09:12;;;;;;;6.2;4.4;;;;;;;;;;;;;
2024/02/07 08:11:37;;;;;;;10.1;4.3;;;;;;;;;;;;;
2024/02/07 08:14:02;;;;;;;7.1;4;;;;;;;;;;;;;
2024/02/07 08:16:27;;;;;;;9;5.3;;;;;;;;;;;;;
2024/02/07 08:18:52;;;;;;;12;6.7;;;;;;;;;;;;;
2024/02/07 08:21:18;;;;;;;22.3;11.3;;;;;;;;;;;;;
2024/02/07 08:23:43;;;;;;;36.5;18.1;;;;;;;;;;;;;
2024/02/07 08:26:08;;;;;;;37.3;20.8;;;;;;;;;;;;;
2024/02/07 08:28:33;;;;;;;33.8;17.4;;;;;;;;;;;;;
2024/02/07 08:30:58;;;;;;;31.1;15.7;;;;;;;;;;;;;
2024/02/07 08:33:23;;;;;;;24.1;14.1;;;;;;;;;;;;;
2024/02/07 08:35:49;;;;;;;21.2;12.3;;;;;;;;;;;;;
2024/02/07 08:38:14;;;;;;;21.9;12.2;;;;;;;;;;;;;
2024/02/07 08:40:39;;;;;;;16.8;10.9;;;;;;;;;;;;;
2024/02/07 08:43:06;;;;;;;21.4;10.4;;;;;;;;;;;;;
2024/02/07 08:45:29;;;;;;;11.7;7.1;;;;;;;;;;;;;
2024/02/07 08:47:54;;;;;;;11.4;5.5;;;;;;;;;;;;;
2024/02/07 08:50:19;;;;;;;7.4;4.8;;;;;;;;;;;;;
2024/02/07 08:52:45;;;;;;;6.5;3.8;;;;;;;;;;;;;
2024/02/07 08:55:10;;;;;;;9.6;4.1;;;;;;;;;;;;;
2024/02/07 08:57:35;;;;;;;6;3.4;;;;;;;;;;;;;
2024/02/07 09:00:00;;;;;;;7.1;4.1;;;;;;;;;;;;;
2024/02/07 09:02:25;;;;;;;8.4;4.1;;;;;;;;;;;;;
2024/02/07 09:04:50;;;;;;;8.6;3.4;;;;;;;;;;;;;
2024/02/07 09:07:15;;;;;;;6.6;3.9;;;;;;;;;;;;;
2024/02/07 09:09:40;;;;;;;9;3.5;;;;;;;;;;;;;
2024/02/07 09:12:06;;;;;;;8.3;3.9;;;;;;;;;;;;;
2024/02/07 09:14:31;;;;;;;10.6;4.5;;;;;;;;;;;;;
2024/02/07 09:16:56;;;;;;;8.4;4.7;;;;;;;;;;;;;
2024/02/07 09:19:21;;;;;;;7.4;4;;;;;;;;;;;;;
2024/02/07 09:21:46;;;;;;;12.2;4.8;;;;;;;;;;;;;
2024/02/07 09:24:11;;;;;;;13.7;4.5;;;;;;;;;;;;;
2024/02/07 09:26:37;;;;;;;9.9;4.4;;;;;;;;;;;;;
2024/02/07 09:29:01;;;;;;;10.4;4.3;;;;;;;;;;;;;
2024/02/07 09:31:26;;;;;;;11.1;4.5;;;;;;;;;;;;;
2024/02/07 09:33:51;;;;;;;11.8;4.3;;;;;;;;;;;;;
2024/02/07 09:36:16;;;;;;;9.7;3.9;;;;;;;;;;;;;
2024/02/07 09:38:42;;;;;;;5.8;3.6;;;;;;;;;;;;;
2024/02/07 09:41:07;;;;;;;7.8;3.8;;;;;;;;;;;;;
2024/02/07 09:43:32;;;;;;;7.5;3.6;;;;;;;;;;;;;
2024/02/07 09:45:57;;;;;;;9.6;3.7;;;;;;;;;;;;;
2024/02/07 09:48:22;;;;;;;7.4;3.1;;;;;;;;;;;;;
2024/02/07 09:50:47;;;;;;;10.3;3.2;;;;;;;;;;;;;
2024/02/07 09:53:12;;;;;;;7.6;3.2;;;;;;;;;;;;;
2024/02/07 09:55:37;;;;;;;5.8;3.2;;;;;;;;;;;;;
2024/02/07 09:58:03;;;;;;;11.5;3.3;;;;;;;;;;;;;
2024/02/07 10:00:28;;;;;;;12.3;4.1;;;;;;;;;;;;;
2024/02/07 10:02:53;;;;;;;13.4;3.7;;;;;;;;;;;;;
2024/02/07 10:05:18;;;;;;;8.2;3.6;;;;;;;;;;;;;
2024/02/07 10:07:43;;;;;;;7.4;3.2;;;;;;;;;;;;;
2024/02/07 10:10:11;;;;;;;6.4;3.3;;;;;;;;;;;;;
2024/02/07 10:13:20;;;;;;;8.8;3.5;;;;;;;13.09;49.67285;931.7611;;;;
2024/02/07 10:15:45;;;;;;;6.9;3;;;;;;;13.33;48.86133;931.715;;;;
2024/02/07 10:18:10;;;;;;;7.6;3.1;;;;;;;13.13;50.04492;931.7238;;;;
2024/02/07 10:20:35;;;;;;;8.1;2.9;;;;;;;12.94;49.56445;931.7031;;;;
2024/02/07 10:23:00;;;;;;;9;3;;;;;;;12.78;49.16602;931.6006;;;;
2024/02/07 10:25:25;;;;;;;9.7;3.3;;;;;;;12.79;50.54492;931.6628;;;;
2024/02/07 10:27:50;;;;;;;7;3.2;;;;;;;12.95;50.73633;931.5609;;;;
2024/02/07 10:30:16;;;;;;;6.4;2.8;;;;;;;13.34;47.35742;931.4661;;;;
2024/02/07 10:32:41;;;;;;;7.2;2.9;;;;;;;13.49;48.02832;931.5406;;;;
2024/02/07 10:35:10;;;;;;;5.8;2.7;;;;;;;13.85;47.03223;931.4867;;;;
2024/02/07 10:37:31;;;;;;;3.8;2.2;;;;;;;13.61;45.44238;931.4359;;;;
2024/02/07 10:39:56;;;;;;;6.7;1.8;;;;;;;13.38;46.32813;931.4913;;;;
2024/02/07 10:42:21;;;;;;;4.1;2.3;;;;;;;13.18;45.45508;931.3958;;;;
2024/02/07 10:44:47;;;;;;;2.5;1.7;;;;;;;12.89;46.92773;931.4185;;;;
2024/02/07 10:47:11;;;;;;;5.7;2.2;;;;;;;12.67;47.07715;931.4915;;;;
2024/02/07 10:49:37;;;;;;;3.8;2.1;;;;;;;12.57;46.88379;931.3947;;;;
2024/02/07 10:52:02;;;;;;;5;2.2;;;;;;;12.63;46.04004;931.4048;;;;
2024/02/07 10:54:27;;;;;;;4.3;2.1;;;;;;;12.58;46.96387;931.3578;;;;
2024/02/07 10:56:52;;;;;;;15.3;6.7;;;;;;;12.48;47.91699;931.2798;;;;
2024/02/07 10:59:17;;;;;;;7.5;2.5;;;;;;;12.51;44.53711;931.2484;;;;
2024/02/07 11:01:42;;;;;;;8.6;2.8;;;;;;;12.45;45.62109;931.2257;;;;
2024/02/07 11:04:08;;;;;;;5.2;2.4;;;;;;;12.55;45.29785;931.1361;;;;
2024/02/07 11:06:34;;;;;;;4.1;2.1;;;;;;;12.6;47.11523;931.0773;;;;
2024/02/07 11:08:58;;;;;;;7.6;1.9;;;;;;;12.59;48.85742;931.0647;;;;
2024/02/07 11:11:23;;;;;;;7.1;2.8;;;;;;;12.72;48.47266;931.0069;;;;
2024/02/07 11:13:48;;;;;;;8.6;2.5;;;;;;;13.03;47.66699;931;;;;
2024/02/07 11:16:13;;;;;;;5.1;2.4;;;;;;;13.9;47.80957;931.021;;;;
2024/02/07 11:18:38;;;;;;;6.6;2.5;;;;;;;13.98;45.10156;930.8189;;;;
2024/02/07 11:21:03;;;;;;;4.3;1.7;;;;;;;13.63;43.51367;930.8183;;;;
2024/02/07 11:23:30;;;;;;;2.4;1.4;;;;;;;13.51;40.63867;930.738;;;;
2024/02/07 11:25:54;;;;;;;3;1.4;;;;;;;13.55;40.59668;930.6359;;;;
2024/02/07 11:28:19;;;;;;;4.1;1.1;;;;;;;13.59;40.57715;930.5491;;;;
2024/02/07 11:30:44;;;;;;;3;1;;;;;;;13.48;40.53223;930.5363;;;;
2024/02/07 11:33:09;;;;;;;5.6;1.8;;;;;;;13.54;41.81445;930.5505;;;;
2024/02/07 11:35:34;;;;;;;3.1;1.5;;;;;;;13.52;41.80078;930.5244;;;;
2024/02/07 11:37:59;;;;;;;2.9;1;;;;;;;13.57;39.93066;930.562;;;;
2024/02/07 11:40:26;;;;;;;2.4;1.4;;;;;;;13.51;41.43262;930.4494;;;;
2024/02/07 11:42:49;;;;;;;3.5;1.3;;;;;;;13.65;40.51465;930.3147;;;;
2024/02/07 11:45:14;;;;;;;3;0.8;;;;;;;13.79;40.23926;930.2654;;;;
2024/02/07 11:47:42;;;;;;;1.6;0.8;;;;;;;14.06;39.46973;930.192;;;;
2024/02/07 11:50:05;;;;;;;2.4;1;;;;;;;14.25;37.66797;930.2137;;;;
2024/02/07 11:52:30;;;;;;;2.3;0.9;;;;;;;14.19;37.08594;930.173;;;;
2024/02/07 11:54:55;;;;;;;3.9;1;;;;;;;14.1;37.44727;930.1192;;;;
2024/02/07 11:57:21;;;;;;;1.5;0.6;;;;;;;14.19;36.74121;930.0231;;;;
2024/02/07 11:59:45;;;;;;;1;0.7;;;;;;;14.19;36.30371;929.9919;;;;
2024/02/07 12:02:10;;;;;;;1.7;0.8;;;;;;;13.96;37.36621;930.0037;;;;
2024/02/07 12:04:35;;;;;;;2.7;1.1;;;;;;;13.93;37.51367;929.9713;;;;
2024/02/07 12:07:01;;;;;;;3.3;0.8;;;;;;;14.15;37.25586;929.9325;;;;
2024/02/07 12:09:25;;;;;;;2.4;0.7;;;;;;;14.28;36.99121;929.9402;;;;
2024/02/07 12:11:51;;;;;;;1;0.9;;;;;;;14.19;36.49902;929.8566;;;;
2024/02/07 12:14:16;;;;;;;2.8;1.1;;;;;;;14.2;37.96289;929.7556;;;;
2024/02/07 12:16:41;;;;;;;1.3;0.7;;;;;;;14.34;36.22461;929.6747;;;;
2024/02/07 12:19:06;;;;;;;2.6;0.7;;;;;;;14.31;37.08496;929.7266;;;;
2024/02/07 12:21:31;;;;;;;1.5;0.8;;;;;;;14.21;35.6377;929.6096;;;;
2024/02/07 12:23:56;;;;;;;2;0.9;;;;;;;14.08;36.08691;929.7562;;;;
2024/02/07 12:26:21;;;;;;;3.9;1.1;;;;;;;14.26;36.78125;929.7644;;;;
2024/02/07 12:28:46;;;;;;;2.9;0.7;;;;;;;14.27;35.76953;929.6744;;;;
2024/02/07 12:31:11;;;;;;;2.3;0.7;;;;;;;14.14;35.73633;929.7101;;;;
2024/02/07 12:33:36;;;;;;;1.7;0.7;;;;;;;13.91;36.85547;929.6691;;;;
2024/02/07 12:36:02;;;;;;;1.5;0.6;;;;;;;13.99;35.86133;929.595;;;;
2024/02/07 12:38:27;;;;;;;2.6;0.7;;;;;;;14.02;36.11719;929.6106;;;;
2024/02/07 12:40:52;;;;;;;5.6;1;;;;;;;14.07;35.90137;929.5594;;;;
2024/02/07 12:43:17;;;;;;;1;0.6;;;;;;;13.93;35.93555;929.5688;;;;
2024/02/07 12:45:42;;;;;;;1.4;0.6;;;;;;;13.88;36.51953;929.532;;;;
2024/02/07 12:48:07;;;;;;;2.1;0.8;;;;;;;13.97;36.35449;929.4742;;;;
2024/02/07 12:50:32;;;;;;;2.9;0.8;;;;;;;14;35.74707;929.3954;;;;
2024/02/07 12:52:57;;;;;;;2;0.7;;;;;;;13.92;36.0625;929.4402;;;;
2024/02/07 12:55:23;;;;;;;1.6;0.7;;;;;;;13.9;35.94531;929.37;;;;
2024/02/07 12:57:47;;;;;;;4.3;0.8;;;;;;;13.82;36.2041;929.3385;;;;
2024/02/07 13:00:13;;;;;;;1.8;0.8;;;;;;;13.76;36.28027;929.3017;;;;
2024/02/07 13:02:38;;;;;;;1.7;0.6;;;;;;;13.84;37.03418;929.2647;;;;
2024/02/07 13:05:03;;;;;;;1.4;0.5;;;;;;;13.89;36.30176;929.255;;;;
2024/02/07 13:07:28;;;;;;;1.7;0.7;;;;;;;13.74;36.48438;929.1821;;;;
2024/02/07 13:09:53;;;;;;;1.4;0.8;;;;;;;13.72;36.35645;929.1728;;;;
2024/02/07 13:12:18;;;;;;;0.7;0.6;;;;;;;13.66;36.53613;929.0739;;;;
2024/02/07 13:14:44;;;;;;;1.8;0.7;;;;;;;13.82;36.26172;928.9753;;;;
2024/02/07 13:17:08;;;;;;;3.8;0.9;;;;;;;13.76;36.1416;928.9194;;;;
2024/02/07 13:19:34;;;;;;;2.3;0.8;;;;;;;13.74;36.86426;928.9228;;;;
2024/02/07 13:21:59;;;;;;;4.4;0.6;;;;;;;13.97;36.60742;928.8606;;;;
2024/02/07 13:24:24;;;;;;;0.9;0.5;;;;;;;14.03;36.32422;928.8414;;;;
2024/02/07 13:26:50;;;;;;;1.2;0.6;;;;;;;14.17;36.625;928.7697;;;;
2024/02/07 13:29:14;;;;;;;1.1;0.7;;;;;;;14.24;36.50293;928.8103;;;;
2024/02/07 13:31:39;;;;;;;1.1;0.6;;;;;;;14.32;36.63672;928.743;;;;
2024/02/07 13:34:04;;;;;;;2.4;0.7;;;;;;;14.39;35.8125;928.7064;;;;
2024/02/07 13:36:30;;;;;;;2;0.9;;;;;;;14.36;36.04102;928.7791;;;;
2024/02/07 13:38:54;;;;;;;15.3;11;;;;;;;14.43;35.20605;928.769;;;;
2024/02/07 13:41:20;;;;;;;13.2;10;;;;;;;14.27;34.84766;928.6856;;;;
2024/02/07 13:43:45;;;;;;;4.2;3.8;;;;;;;14.19;35.34766;928.7189;;;;
2024/02/07 13:46:09;;;;;;;1.9;1.7;;;;;;;14.09;35.32813;928.6697;;;;
2024/02/07 13:48:34;;;;;;;1.1;1;;;;;;;14.03;36.01367;928.6372;;;;
2024/02/07 13:51:02;;;;;;;1.1;0.8;;;;;;;14.08;36.30664;928.5425;;;;
2024/02/07 13:53:25;;;;;;;2.2;0.7;;;;;;;14.26;34.99707;928.5536;;;;
2024/02/07 13:55:50;;;;;;;2;0.8;;;;;;;14.46;35.76074;928.5422;;;;
2024/02/07 13:58:15;;;;;;;2.1;0.8;;;;;;;14.43;34.9873;928.5048;;;;
2024/02/07 14:00:40;;;;;;;1.9;1;;;;;;;14.4;35.23926;928.517;;;;
2024/02/07 14:03:05;;;;;;;2.1;0.6;;;;;;;14.44;35.12695;928.4832;;;;
2024/02/07 14:05:30;;;;;;;0.4;0.4;;;;;;;14.45;34.65527;928.4325;;;;
2024/02/07 14:07:56;;;;;;;1.7;0.7;;;;;;;14.32;35.10449;928.3466;;;;
2024/02/07 14:10:20;;;;;;;1.8;0.6;;;;;;;14.33;34.62207;928.42;;;;
2024/02/07 14:12:45;;;;;;;0.8;0.6;;;;;;;14.38;35.11035;928.407;;;;
2024/02/07 14:15:11;;;;;;;2.3;0.7;;;;;;;14.32;35.00098;928.2938;;;;
2024/02/07 14:17:36;;;;;;;1.4;0.8;;;;;;;14.2;34.81934;928.3713;;;;
2024/02/07 14:20:01;;;;;;;0.6;0.6;;;;;;;14.21;34.55469;928.315;;;;
2024/02/07 14:22:26;;;;;;;1.3;0.8;;;;;;;14.22;34.38281;928.3152;;;;
2024/02/07 14:24:51;;;;;;;1.7;0.6;;;;;;;14.17;36.17578;928.2445;;;;
2024/02/07 14:27:16;;;;;;;1.5;0.6;;;;;;;14.17;34.9668;928.2117;;;;
2024/02/07 14:29:41;;;;;;;4;0.8;;;;;;;14.18;34.55273;928.2619;;;;
2024/02/07 14:32:08;;;;;;;1.9;0.8;;;;;;;14.13;34.43359;928.111;;;;
2024/02/07 14:34:31;;;;;;;2.1;0.5;;;;;;;14.2;34.25488;928.1462;;;;
2024/02/07 14:36:56;;;;;;;3.7;0.8;;;;;;;14.08;34.64746;928.1487;;;;
2024/02/07 14:39:22;;;;;;;4.9;1;;;;;;;14.08;34.52148;928.1335;;;;
2024/02/07 14:41:46;;;;;;;1.9;0.8;;;;;;;14.1;34.4541;928.134;;;;
2024/02/07 14:44:12;;;;;;;2.9;1.1;;;;;;;14.04;35.46191;928.0687;;;;
2024/02/07 14:46:37;;;;;;;2.3;1.3;;;;;;;14.13;35.27441;928.1436;;;;
2024/02/07 14:49:01;;;;;;;2.2;1.1;;;;;;;14.13;34.44531;928.0259;;;;
2024/02/07 14:51:27;;;;;;;1.3;1;;;;;;;14.06;34.39355;927.9619;;;;
2024/02/07 14:53:52;;;;;;;3;0.8;;;;;;;13.93;35.18945;928.0153;;;;
2024/02/07 14:56:17;;;;;;;1.7;0.8;;;;;;;14.03;34.56348;927.8936;;;;
2024/02/07 14:58:42;;;;;;;2.2;0.6;;;;;;;14;34.35449;927.9308;;;;
2024/02/07 15:01:07;;;;;;;0.6;0.4;;;;;;;13.97;34.6748;927.9905;;;;
2024/02/07 15:03:32;;;;;;;0.7;0.5;;;;;;;14.04;35.49707;927.976;;;;
2024/02/07 15:05:57;;;;;;;1.2;0.6;;;;;;;14.14;34.89551;927.9592;;;;
2024/02/07 15:08:24;;;;;;;1.7;0.9;;;;;;;14.07;34.79785;927.8807;;;;
2024/02/07 15:10:49;;;;;;;3.6;1.2;;;;;;;14.07;35.25781;927.8856;;;;
2024/02/07 15:13:13;;;;;;;3.5;1.2;;;;;;;14.05;34.30078;927.8995;;;;
2024/02/07 15:15:38;;;;;;;1;0.7;;;;;;;13.99;34.41113;927.8549;;;;
2024/02/07 15:18:03;;;;;;;2.1;0.9;;;;;;;13.98;34.95117;927.8759;;;;
2024/02/07 15:20:28;;;;;;;2.6;0.7;;;;;;;14.11;34.54688;927.6839;;;;
2024/02/07 15:22:53;;;;;;;1.8;0.4;;;;;;;14.16;34.44727;927.6964;;;;
2024/02/07 15:25:19;;;;;;;2.6;0.7;;;;;;;14.09;34.26855;927.7211;;;;
2024/02/07 15:27:43;;;;;;;3.6;0.7;;;;;;;13.95;34.4541;927.6877;;;;
2024/02/07 15:30:09;;;;;;;1.3;0.7;;;;;;;13.9;34.71484;927.6711;;;;
2024/02/07 15:32:34;;;;;;;2.6;1;;;;;;;13.88;34.70215;927.6778;;;;
2024/02/07 15:34:59;;;;;;;1.8;0.9;;;;;;;13.84;34.93945;927.7003;;;;
2024/02/07 15:37:24;;;;;;;1.2;0.7;;;;;;;13.81;35.24902;927.6774;;;;
2024/02/07 15:39:50;;;;;;;1.1;0.8;;;;;;;13.8;35.35059;927.6;;;;
2024/02/07 15:42:14;;;;;;;1.2;0.6;;;;;;;13.7;34.68652;927.6252;;;;
2024/02/07 15:44:40;;;;;;;1.8;0.5;;;;;;;13.67;34.4541;927.685;;;;
2024/02/07 15:47:05;;;;;;;2.9;0.9;;;;;;;13.65;34.95898;927.7078;;;;
2024/02/07 15:49:31;;;;;;;3.4;1.5;;;;;;;13.57;36.01074;927.7258;;;;
2024/02/07 15:51:55;;;;;;;1.2;0.6;;;;;;;13.6;34.98926;927.6205;;;;
2024/02/07 15:54:20;;;;;;;3.7;0.8;;;;;;;13.5;35.75195;927.5808;;;;
2024/02/07 15:56:45;;;;;;;4.6;2.5;;;;;;;13.43;36.91797;927.6102;;;;
2024/02/07 15:59:11;;;;;;;9.1;3.2;;;;;;;13.31;37.52832;927.6113;;;;
2024/02/07 16:01:35;;;;;;;5.4;2.6;;;;;;;13.16;38.30762;927.5494;;;;
2024/02/07 16:04:01;;;;;;;3.5;1.7;;;;;;;13.13;38.09961;927.5228;;;;
2024/02/07 16:06:27;;;;;;;14.8;7.2;;;;;;;13.06;38.4834;927.5295;;;;
2024/02/07 16:08:51;;;;;;;17.9;8.3;;;;;;;13;38.95996;927.4968;;;;
2024/02/07 16:11:16;;;;;;;31.1;13.8;;;;;;;12.72;42.06934;927.4484;;;;
2024/02/07 16:13:41;;;;;;;22.1;10.9;;;;;;;12.62;42.76953;927.395;;;;
2024/02/07 16:16:06;;;;;;;11.7;6.5;;;;;;;12.53;42.24512;927.3625;;;;
2024/02/07 16:18:31;;;;;;;30;13.9;;;;;;;12.47;42.30762;927.3923;;;;
2024/02/07 16:20:56;;;;;;;28.6;13.5;;;;;;;12.37;42.36621;927.3312;;;;
2024/02/07 16:23:22;;;;;;;24.7;12.5;;;;;;;12.29;42.0498;927.4026;;;;
2024/02/07 16:25:47;;;;;;;12.3;6.5;;;;;;;12.34;41.18262;927.3069;;;;
2024/02/07 16:28:12;;;;;;;13.5;6.3;;;;;;;12.27;41.7832;927.2792;;;;
2024/02/07 16:30:37;;;;;;;11.5;4.9;;;;;;;12.23;42.02051;927.3206;;;;
2024/02/07 16:33:02;;;;;;;9.1;4.2;;;;;;;12.22;42.20215;927.3367;;;;
2024/02/07 16:35:27;;;;;;;11.6;6.7;;;;;;;12.09;43.37012;927.3876;;;;
2024/02/07 16:37:52;;;;;;;16.7;9.1;;;;;;;11.92;45.43848;927.3108;;;;
2024/02/07 16:40:17;;;;;;;11.1;5.8;;;;;;;11.97;44.50391;927.3834;;;;
2024/02/07 16:42:42;;;;;;;9.8;5.8;;;;;;;11.93;44.45508;927.4247;;;;
2024/02/07 16:45:08;;;;;;;10.8;4.4;;;;;;;11.83;44.66211;927.3837;;;;
2024/02/07 16:47:34;;;;;;;10.1;4.8;;;;;;;11.77;44.90723;927.399;;;;
2024/02/07 16:49:59;;;;;;;7.5;4.9;;;;;;;11.61;45.66895;927.4144;;;;